Time;durP1;ratioP1;P1;durP2;ratioP2;P2;SDS_P1;SDS_P2;PMS_P1;PMS_P2;Temp;Humidity;BMP_temperature;BMP_pressure;BME280_temperature;BME280_humidity;BME280_pressure;Samples;Min_cycle;Max_cycle;Signal;HPM_P1;HPM_P2
2021/08/25 00:00:20;;;;;;;5.82;3.60;;;12.60;78.70;;;12.02;65.40;95600.78;5036370;28;20298;-78
2021/08/25 00:02:48;;;;;;;5.05;3.38;;;12.60;78.60;;;11.95;65.28;95605.09;5052874;28;20224;-79
2021/08/25 00:05:16;;;;;;;4.65;3.80;;;12.50;78.60;;;11.97;65.43;95611.88;5019600;28;20358;-79
2021/08/25 00:07:43;;;;;;;5.10;3.28;;;12.50;78.70;;;11.95;65.34;95611.19;5033196;28;20216;-79
2021/08/25 00:10:12;;;;;;;4.93;3.50;;;12.50;78.60;;;11.93;65.44;95600.03;4999960;28;20216;-79
2021/08/25 00:12:39;;;;;;;6.32;3.22;;;12.50;78.60;;;11.90;65.36;95597.78;5035402;28;20760;-79
2021/08/25 00:15:08;;;;;;;4.20;3.17;;;12.50;78.60;;;11.88;65.64;95599.78;5016042;28;20216;-79
2021/08/25 00:17:36;;;;;;;4.50;3.15;;;12.50;78.70;;;11.83;65.31;95597.69;5018728;28;20660;-79
2021/08/25 00:20:04;;;;;;;5.38;3.47;;;12.40;78.50;;;11.79;65.53;95593.81;5035524;28;20223;-79
2021/08/25 00:22:31;;;;;;;4.22;3.10;;;12.40;78.60;;;11.77;65.22;95595.00;5032652;28;20231;-78
2021/08/25 00:24:59;;;;;;;4.72;3.50;;;12.40;78.60;;;11.76;65.36;95588.09;5017437;28;20216;-79
2021/08/25 00:27:26;;;;;;;5.75;3.60;;;12.40;78.60;;;11.71;65.38;95580.75;5032306;28;20223;-79
2021/08/25 00:29:53;;;;;;;6.95;3.35;;;12.30;78.60;;;11.69;65.56;95585.38;5033329;28;20212;-79
2021/08/25 00:32:20;;;;;;;5.50;3.85;;;12.20;78.50;;;11.67;65.35;95576.88;5024447;28;20292;-79
2021/08/25 00:34:49;;;;;;;6.15;3.35;;;12.20;78.60;;;11.65;65.35;95578.84;5019769;28;20230;-79
2021/08/25 00:37:16;;;;;;;4.30;3.15;;;12.30;78.60;;;11.59;65.54;95574.34;5015935;28;20236;-79
2021/08/25 00:39:43;;;;;;;4.80;3.67;;;12.20;78.50;;;11.56;65.66;95564.16;5015627;28;20196;-79
2021/08/25 00:42:10;;;;;;;5.55;3.45;;;12.20;78.60;;;11.54;65.38;95565.16;5032219;28;20188;-79
2021/08/25 00:44:37;;;;;;;5.45;3.13;;;12.10;78.50;;;11.51;65.40;95564.72;5032677;28;20208;-78
2021/08/25 00:47:04;;;;;;;4.35;3.47;;;12.10;78.60;;;11.48;65.56;95563.25;5019074;28;20207;-79
2021/08/25 00:49:31;;;;;;;6.25;3.60;;;12.20;78.60;;;11.47;65.56;95555.56;5035592;28;20579;-79
2021/08/25 00:51:59;;;;;;;5.32;3.63;;;12.10;78.70;;;11.45;65.83;95550.50;5051922;28;20283;-79
2021/08/25 00:54:26;;;;;;;6.50;3.42;;;12.00;78.60;;;11.43;65.34;95554.31;5030714;28;20722;-79
2021/08/25 00:56:53;;;;;;;6.28;3.35;;;12.00;78.60;;;11.37;65.59;95547.97;5048369;28;20580;-79
2021/08/25 00:59:21;;;;;;;4.45;3.40;;;12.00;78.60;;;11.33;65.58;95542.25;5031965;28;20564;-79
2021/08/25 01:02:20;;;;;;;6.35;3.53;;;12.00;78.60;;;11.32;65.56;95543.25;5015225;28;20270;-78
2021/08/25 01:04:59;;;;;;;4.90;3.00;;;11.90;78.90;;;11.27;65.68;95540.34;5033308;28;20215;-79
2021/08/25 01:07:32;;;;;;;6.35;3.60;;;11.90;79.00;;;11.23;65.74;95533.84;5015508;28;20279;-79
2021/08/25 01:10:00;;;;;;;6.03;3.90;;;11.80;78.80;;;11.23;65.77;95530.38;5048040;28;20239;-79
2021/08/25 01:12:27;;;;;;;3.47;2.78;;;11.80;78.50;;;11.22;65.71;95532.22;5031692;28;20197;-78
2021/08/25 01:14:55;;;;;;;5.30;3.22;;;11.80;78.60;;;11.18;65.83;95525.66;5034706;28;20705;-80
2021/08/25 01:17:26;;;;;;;5.00;3.58;;;11.80;78.70;;;11.17;65.68;95530.13;5051323;28;20187;-79
2021/08/25 01:20:10;;;;;;;4.68;3.33;;;11.80;79.00;;;11.14;65.72;95535.72;5051312;28;20269;-80
2021/08/25 01:22:44;;;;;;;4.53;3.35;;;11.70;79.10;;;11.13;65.71;95530.66;5029465;28;20275;-79
2021/08/25 01:25:12;;;;;;;4.53;3.42;;;11.70;78.90;;;11.10;65.45;95534.47;5015194;28;20216;-79
2021/08/25 01:27:52;;;;;;;5.45;3.33;;;11.70;78.60;;;11.06;65.73;95530.56;5015048;28;20289;-79
2021/08/25 01:30:23;;;;;;;4.03;3.05;;;11.70;79.80;;;11.03;65.64;95537.00;5014919;28;20319;-79
2021/08/25 01:32:51;;;;;;;4.05;3.17;;;11.80;78.80;;;11.01;65.67;95531.09;5014841;28;20216;-79
2021/08/25 01:35:19;;;;;;;4.97;3.47;;;11.60;78.60;;;10.99;65.78;95534.91;5034629;28;20230;-79
2021/08/25 01:37:46;;;;;;;5.82;3.63;;;11.70;78.70;;;10.97;65.88;95537.69;5034834;28;20196;-79
2021/08/25 01:40:14;;;;;;;4.75;3.40;;;11.60;78.70;;;10.97;65.83;95534.25;5050883;28;20216;-79
2021/08/25 01:42:43;;;;;;;5.43;3.50;;;11.50;78.70;;;10.95;65.70;95536.25;5051265;28;20249;-79
2021/08/25 01:45:10;;;;;;;5.80;3.10;;;11.50;78.70;;;10.94;66.14;95532.00;5018107;28;20238;-79
2021/08/25 01:47:37;;;;;;;5.55;3.83;;;11.50;78.80;;;10.92;66.00;95531.34;5058518;28;20197;-80
2021/08/25 01:50:05;;;;;;;4.90;3.33;;;11.50;78.80;;;10.91;65.96;95533.16;5014591;28;20311;-79
2021/08/25 01:52:34;;;;;;;4.93;3.20;;;11.50;78.80;;;10.91;65.79;95527.09;5026225;28;20630;-78
2021/08/25 01:55:01;;;;;;;7.07;3.90;;;11.40;78.70;;;10.89;66.06;95528.09;5047491;28;20234;-79
2021/08/25 01:57:28;;;;;;;7.50;3.63;;;11.40;78.70;;;10.86;66.16;95522.38;5031223;28;20704;-79
2021/08/25 01:59:55;;;;;;;8.40;3.65;;;11.40;78.70;;;10.83;65.97;95526.19;4999068;28;20215;-79
2021/08/25 02:02:22;;;;;;;7.10;3.40;;;11.40;78.70;;;10.81;65.81;95520.28;5014615;28;20658;-78
2021/08/25 02:04:50;;;;;;;5.45;3.58;;;11.40;78.70;;;10.79;65.87;95518.84;5026767;28;20200;-79
2021/08/25 02:07:18;;;;;;;6.13;3.15;;;11.40;78.80;;;10.75;65.57;95513.13;5014891;28;20618;-79
2021/08/25 02:09:45;;;;;;;5.93;3.42;;;11.40;78.80;;;10.74;65.81;95511.50;5032217;28;20204;-78
2021/08/25 02:12:12;;;;;;;5.05;3.30;;;11.30;78.70;;;10.72;65.65;95510.88;5023465;28;20204;-79
2021/08/25 02:14:39;;;;;;;5.40;3.50;;;11.40;78.70;;;10.67;65.81;95505.34;5017797;28;20639;-78
2021/08/25 02:17:06;;;;;;;6.45;3.50;;;11.30;78.70;;;10.69;65.80;95509.41;5034310;28;20207;-79
2021/08/25 02:19:34;;;;;;;6.53;3.50;;;11.40;78.80;;;10.66;66.10;95508.97;5035412;28;20211;-79
2021/08/25 02:22:01;;;;;;;5.57;3.50;;;11.30;78.70;;;10.61;65.95;95500.78;5030815;28;20189;-79
2021/08/25 02:24:29;;;;;;;6.18;3.55;;;11.30;78.70;;;10.64;65.90;95500.44;5033119;28;20214;-80
2021/08/25 02:26:56;;;;;;;5.22;3.13;;;11.20;78.80;;;10.62;65.78;95505.03;5034112;28;20591;-78
2021/08/25 02:29:23;;;;;;;6.28;3.42;;;11.20;78.80;;;10.62;66.03;95500.63;5050438;28;20271;-80
2021/08/25 02:31:50;;;;;;;6.35;3.85;;;11.20;78.80;;;10.60;66.12;95493.94;5034109;28;20275;-79
2021/08/25 02:34:17;;;;;;;5.10;3.63;;;11.20;78.80;;;10.56;65.79;95493.47;5023514;28;20224;-79
2021/08/25 02:36:44;;;;;;;5.50;3.22;;;11.10;78.80;;;10.59;65.71;95494.91;5031735;28;20252;-78
2021/08/25 02:39:12;;;;;;;6.53;4.07;;;11.20;78.80;;;10.58;65.90;95496.72;5034880;28;20192;-79
2021/08/25 02:41:39;;;;;;;4.90;3.42;;;11.10;78.70;;;10.56;65.69;95499.53;5034029;28;20285;-79
2021/08/25 02:44:06;;;;;;;5.95;3.28;;;11.20;78.70;;;10.54;65.85;95498.88;5029037;28;20203;-79
2021/08/25 02:46:35;;;;;;;7.63;3.10;;;11.10;78.70;;;10.51;65.86;95490.53;5017488;28;20323;-78
2021/08/25 02:49:03;;;;;;;5.75;3.65;;;11.10;78.80;;;10.50;65.99;95500.22;5017785;28;20209;-80
2021/08/25 02:51:30;;;;;;;5.47;3.50;;;11.10;78.80;;;10.46;66.06;95491.09;5018069;28;20216;-79
2021/08/25 02:53:58;;;;;;;4.72;3.28;;;11.10;78.80;;;10.44;66.00;95487.03;5034245;28;20584;-79
2021/08/25 02:56:26;;;;;;;5.68;3.60;;;11.10;78.80;;;10.45;66.11;95494.69;5029681;28;20645;-79
2021/08/25 02:58:53;;;;;;;5.38;3.30;;;11.10;78.90;;;10.44;65.93;95485.19;5053556;28;20642;-78
2021/08/25 03:01:20;;;;;;;6.70;3.70;;;11.00;78.90;;;10.41;66.12;95478.50;5040926;28;20232;-79
2021/08/25 03:03:48;;;;;;;5.57;3.47;;;11.00;78.80;;;10.39;65.85;95479.69;5039222;28;20230;-78
2021/08/25 03:06:15;;;;;;;5.07;3.13;;;11.00;78.70;;;10.36;66.00;95480.84;5049708;28;20629;-78
2021/08/25 03:08:42;;;;;;;5.40;3.40;;;11.00;78.60;;;10.33;65.57;95481.16;5036176;28;20204;-78
2021/08/25 03:11:10;;;;;;;4.45;2.97;;;10.90;78.60;;;10.29;65.65;95479.88;5036773;28;20215;-78
2021/08/25 03:13:39;;;;;;;4.88;3.30;;;10.90;78.50;;;10.26;65.92;95477.59;5017218;28;20227;-78
2021/08/25 03:16:07;;;;;;;5.45;3.25;;;10.90;78.70;;;10.23;66.00;95477.97;5016428;28;22079;-78
2021/08/25 03:18:34;;;;;;;4.68;2.72;;;10.80;78.60;;;10.21;65.90;95474.69;5017182;28;20196;-78
2021/08/25 03:21:01;;;;;;;6.10;3.80;;;10.90;78.70;;;10.19;65.91;95463.56;5024586;28;20315;-79
2021/08/25 03:23:29;;;;;;;5.75;3.20;;;10.80;78.70;;;10.17;66.11;95460.31;5043600;28;20230;-80
2021/08/25 03:25:57;;;;;;;5.78;3.50;;;10.90;78.70;;;10.12;66.09;95458.22;5032758;28;20323;-78
2021/08/25 03:28:24;;;;;;;6.35;3.78;;;10.80;78.80;;;10.09;66.02;95461.19;5040057;28;20193;-80
2021/08/25 03:30:56;;;;;;;6.00;3.75;;;10.80;78.90;;;10.13;66.03;95464.28;5045831;28;20334;-78
2021/08/25 03:33:24;;;;;;;5.28;3.35;;;10.70;78.80;;;10.08;66.08;95462.16;5033933;28;20267;-79
2021/08/25 03:35:51;;;;;;;4.13;2.92;;;10.70;78.90;;;10.10;66.04;95465.44;5012194;28;20616;-78
2021/08/25 03:38:19;;;;;;;5.28;3.17;;;10.70;78.80;;;10.12;66.05;95458.22;5008271;28;20204;-78
2021/08/25 03:40:46;;;;;;;6.85;3.42;;;10.70;79.00;;;10.11;66.53;95459.22;5033647;28;20228;-78
2021/08/25 03:43:13;;;;;;;4.93;3.25;;;10.70;79.10;;;10.13;66.39;95457.25;5025154;28;20650;-79
2021/08/25 03:45:40;;;;;;;4.03;3.10;;;10.60;79.20;;;10.14;66.48;95460.66;5030100;28;20220;-78
2021/08/25 03:48:08;;;;;;;4.63;3.35;;;10.60;79.20;;;10.16;66.34;95459.50;5052105;28;20275;-80
2021/08/25 03:50:35;;;;;;;4.70;3.03;;;10.70;79.20;;;10.14;66.34;95445.72;5017622;28;20208;-79
2021/08/25 03:53:02;;;;;;;5.43;2.97;;;10.70;79.20;;;10.18;66.58;95451.44;5041621;28;20303;-79
2021/08/25 03:55:29;;;;;;;7.25;3.22;;;10.70;79.30;;;10.19;66.47;95453.91;5018034;28;20228;-79
2021/08/25 03:57:57;;;;;;;4.90;3.00;;;10.70;79.30;;;10.19;66.13;95459.16;4998834;28;20220;-80
2021/08/25 04:00:24;;;;;;;6.50;3.67;;;10.70;79.30;;;10.19;66.09;95456.53;5014696;28;20224;-79
2021/08/25 04:02:51;;;;;;;4.80;3.05;;;10.70;79.30;;;10.21;66.25;95461.59;5027406;28;20199;-80
2021/08/25 04:05:18;;;;;;;4.68;3.00;;;10.70;79.40;;;10.22;66.34;95458.78;5018047;28;20223;-80
2021/08/25 04:07:46;;;;;;;4.03;2.58;;;10.70;79.50;;;10.27;66.36;95465.31;5033454;28;20269;-80
2021/08/25 04:10:13;;;;;;;5.72;3.53;;;10.70;79.70;;;10.30;66.57;95460.53;5052706;28;20629;-80
2021/08/25 04:12:40;;;;;;;4.85;2.97;;;10.70;79.70;;;10.36;66.76;95465.13;5042533;28;20204;-79
2021/08/25 04:15:08;;;;;;;7.38;3.60;;;10.70;79.80;;;10.41;66.64;95460.16;5030434;28;20227;-79
2021/08/25 04:17:35;;;;;;;6.57;3.05;;;10.80;80.00;;;10.45;66.57;95459.78;5016623;28;20678;-80
2021/08/25 04:20:03;;;;;;;3.70;2.83;;;10.80;80.00;;;10.50;66.54;95465.34;5032455;28;20205;-79
2021/08/25 04:22:30;;;;;;;4.15;2.90;;;10.90;80.10;;;10.60;66.97;95459.84;5029764;28;20610;-80
2021/08/25 04:24:57;;;;;;;3.92;3.20;;;10.90;80.20;;;10.62;67.05;95450.78;5039018;28;20223;-80
2021/08/25 04:27:24;;;;;;;5.10;3.65;;;11.00;80.30;;;10.73;66.99;95454.78;5052589;28;20191;-80
2021/08/25 04:29:51;;;;;;;5.50;4.32;;;11.10;80.30;;;10.78;67.16;95464.72;5032104;28;20262;-78
2021/08/25 04:32:18;;;;;;;5.20;3.70;;;11.10;80.40;;;10.85;67.05;95460.38;5051946;28;20290;-80
2021/08/25 04:34:45;;;;;;;6.38;3.95;;;11.20;80.40;;;10.92;67.12;95455.25;5052298;28;20219;-79
2021/08/25 04:37:13;;;;;;;8.98;3.90;;;11.20;80.50;;;11.00;67.07;95457.78;5035380;28;20208;-80
2021/08/25 04:39:40;;;;;;;4.28;3.35;;;11.30;80.60;;;11.05;66.62;95448.38;5034162;28;20200;-79
2021/08/25 04:42:07;;;;;;;5.47;3.45;;;11.40;80.70;;;11.12;66.86;95443.22;5018586;28;20215;-79
2021/08/25 04:44:34;;;;;;;5.72;3.10;;;11.40;80.70;;;11.24;66.96;95455.88;5027914;28;20566;-80
2021/08/25 04:47:02;;;;;;;4.93;3.13;;;11.50;80.70;;;11.31;66.86;95454.94;5010917;28;20673;-80
2021/08/25 04:49:29;;;;;;;3.92;3.15;;;11.50;80.60;;;11.37;66.69;95446.34;5047058;28;20189;-80
2021/08/25 04:51:56;;;;;;;4.70;3.10;;;11.70;80.70;;;11.42;66.70;95443.16;5037886;28;20313;-80
2021/08/25 04:54:23;;;;;;;3.92;2.97;;;11.70;80.70;;;11.48;66.74;95441.63;5035260;28;20247;-81
2021/08/25 04:56:50;;;;;;;5.38;3.47;;;11.70;80.60;;;11.51;66.79;95443.88;5051575;28;20637;-81
2021/08/25 04:59:18;;;;;;;5.00;3.83;;;11.80;80.60;;;11.56;66.84;95446.78;5050969;28;20199;-79
2021/08/25 05:01:45;;;;;;;4.88;4.07;;;11.80;80.50;;;11.53;66.79;95440.09;5017017;28;20220;-81
2021/08/25 05:04:12;;;;;;;4.97;4.30;;;11.90;81.40;;;11.61;66.98;95438.31;5003139;28;20729;-80
2021/08/25 05:06:39;;;;;;;6.63;4.50;;;12.00;80.50;;;11.60;66.76;95428.84;5030675;28;20222;-81
2021/08/25 05:09:06;;;;;;;6.55;3.75;;;12.00;80.50;;;11.71;66.92;95440.69;5024174;28;20192;-81
2021/08/25 05:11:35;;;;;;;5.40;4.10;;;12.10;80.60;;;11.79;66.92;95443.16;5035086;28;20306;-80
2021/08/25 05:14:02;;;;;;;5.32;3.60;;;12.10;80.70;;;11.85;66.84;95443.25;5044612;28;20216;-81
2021/08/25 05:16:29;;;;;;;4.43;3.60;;;12.10;80.70;;;11.93;66.84;95444.13;5046498;28;20285;-80
2021/08/25 05:18:56;;;;;;;4.72;3.80;;;12.20;80.70;;;11.99;66.84;95441.59;5013924;28;20254;-81
2021/08/25 05:21:24;;;;;;;5.75;3.85;;;12.30;80.70;;;12.07;66.63;95447.72;5021566;28;20217;-81
2021/08/25 05:23:51;;;;;;;5.57;3.83;;;12.40;80.80;;;12.14;66.56;95446.78;5015323;28;20291;-80
2021/08/25 05:26:19;;;;;;;6.95;4.13;;;12.40;80.70;;;12.18;66.69;95436.69;5031162;28;20243;-81
2021/08/25 05:28:46;;;;;;;4.85;3.58;;;12.40;80.70;;;12.26;66.69;95444.47;5045381;28;20664;-81
2021/08/25 05:31:13;;;;;;;5.75;3.80;;;12.50;80.60;;;12.33;66.64;95447.19;5030535;28;20588;-81
2021/08/25 05:33:40;;;;;;;4.82;3.67;;;12.50;80.70;;;12.41;66.72;95446.22;5020285;28;20207;-81
2021/08/25 05:36:07;;;;;;;3.65;3.33;;;12.60;80.80;;;12.47;66.76;95443.66;5016221;28;20318;-80
2021/08/25 05:38:34;;;;;;;4.13;3.40;;;12.70;80.70;;;12.55;66.49;95440.06;5034406;28;20410;-81
2021/08/25 05:41:01;;;;;;;4.10;3.08;;;12.70;80.70;;;12.65;66.64;95431.84;5032939;28;20327;-81
2021/08/25 05:43:28;;;;;;;7.05;3.30;;;12.80;80.80;;;12.71;66.56;95432.91;5034281;28;20279;-81
2021/08/25 05:45:56;;;;;;;4.18;3.25;;;12.90;81.00;;;12.83;66.62;95431.34;5017772;28;20297;-81
2021/08/25 05:48:23;;;;;;;4.65;3.72;;;13.00;81.20;;;12.97;66.71;95448.88;5034158;28;20202;-81
2021/08/25 05:50:50;;;;;;;3.50;3.17;;;13.00;81.20;;;13.08;66.37;95444.03;5010935;28;20316;-79
2021/08/25 05:53:18;;;;;;;3.97;3.00;;;13.20;81.30;;;13.15;66.41;95439.63;5024332;28;20676;-80
2021/08/25 05:55:45;;;;;;;4.63;3.30;;;13.20;81.20;;;13.27;66.62;95447.81;5014771;28;20296;-80
2021/08/25 05:58:12;;;;;;;4.20;3.25;;;13.30;81.10;;;13.32;66.26;95449.81;5029726;28;20582;-81
2021/08/25 06:00:39;;;;;;;5.43;3.25;;;13.40;80.90;;;13.38;65.97;95447.28;5019050;28;20302;-79
2021/08/25 06:03:07;;;;;;;3.67;3.30;;;13.50;80.70;;;13.43;65.92;95442.22;5010373;28;20191;-80
2021/08/25 06:05:35;;;;;;;4.32;3.50;;;13.60;80.70;;;13.47;65.87;95447.09;5014339;28;20223;-80
2021/08/25 06:08:04;;;;;;;4.15;3.20;;;13.70;80.60;;;13.53;65.84;95441.06;5030115;28;20212;-80
2021/08/25 06:10:31;;;;;;;4.68;3.30;;;13.70;80.40;;;13.52;66.04;95432.31;5026975;28;20710;-80
2021/08/25 06:12:58;;;;;;;16.02;7.65;;;13.70;80.30;;;13.59;65.88;95443.69;5014353;28;20191;-79
2021/08/25 06:15:25;;;;;;;6.95;4.85;;;13.80;80.40;;;13.65;65.48;95442.09;5018895;28;20398;-80
2021/08/25 06:17:52;;;;;;;5.38;4.15;;;13.80;80.40;;;13.72;65.99;95450.84;5027996;28;20195;-79
2021/08/25 06:20:20;;;;;;;4.75;4.15;;;13.90;80.40;;;13.71;65.28;95445.78;5052682;28;20254;-79
2021/08/25 06:22:47;;;;;;;6.05;3.30;;;13.90;80.10;;;13.76;65.59;95446.00;5021785;28;20273;-79
2021/08/25 06:25:15;;;;;;;4.38;3.75;;;13.90;80.00;;;13.81;65.66;95448.84;5037063;28;20306;-79
2021/08/25 06:27:42;;;;;;;4.65;3.72;;;14.10;80.20;;;13.87;65.71;95452.53;5036124;28;20210;-79
2021/08/25 06:30:10;;;;;;;3.80;3.20;;;14.10;80.10;;;13.90;65.65;95438.91;5042709;28;20565;-79
2021/08/25 06:32:38;;;;;;;5.35;3.83;;;14.10;80.20;;;13.99;65.69;95443.00;5035631;28;20223;-79
2021/08/25 06:35:06;;;;;;;4.00;3.40;;;14.10;81.10;;;14.09;65.19;95445.25;5054153;28;20310;-79
2021/08/25 06:37:33;;;;;;;6.70;4.85;;;14.20;80.30;;;14.16;65.25;95443.44;5051682;28;20195;-79
2021/08/25 06:40:01;;;;;;;4.57;4.18;;;14.30;80.30;;;14.16;65.30;95437.34;5017853;28;20232;-80
2021/08/25 06:42:28;;;;;;;5.88;4.82;;;14.30;80.10;;;14.21;64.81;95437.56;5034462;28;20595;-79
2021/08/25 06:44:55;;;;;;;5.82;4.90;;;14.40;80.00;;;14.22;64.73;95439.16;5034056;28;20579;-79
2021/08/25 06:47:22;;;;;;;7.45;5.65;;;14.40;79.90;;;14.24;64.50;95442.44;5045632;28;20199;-79
2021/08/25 06:49:50;;;;;;;5.95;5.35;;;14.50;79.60;;;14.23;64.04;95438.16;5024292;28;20204;-80
2021/08/25 06:52:17;;;;;;;8.05;5.43;;;14.50;79.40;;;14.28;64.26;95440.19;5037509;28;20203;-79
2021/08/25 06:54:44;;;;;;;6.43;5.57;;;14.60;79.40;;;14.27;64.57;95426.22;5048452;28;20704;-79
2021/08/25 06:57:11;;;;;;;7.15;5.43;;;14.60;79.30;;;14.32;64.37;95420.28;5037356;28;20204;-79
2021/08/25 06:59:38;;;;;;;6.65;5.72;;;14.60;79.40;;;14.39;64.48;95429.03;5032479;28;20291;-79
2021/08/25 07:02:05;;;;;;;6.50;5.80;;;14.60;79.40;;;14.45;64.48;95425.56;5017270;28;20211;-79
2021/08/25 07:04:33;;;;;;;6.68;5.97;;;14.70;79.50;;;14.49;64.55;95420.72;5031837;28;20291;-79
2021/08/25 07:07:00;;;;;;;7.43;6.25;;;14.70;79.50;;;14.53;64.26;95414.81;5015311;28;20196;-79
2021/08/25 07:09:29;;;;;;;6.90;5.50;;;14.80;79.60;;;14.56;63.86;95422.34;5015380;28;20230;-81
2021/08/25 07:11:56;;;;;;;8.02;5.72;;;14.70;79.30;;;14.59;64.34;95418.47;5028123;28;20377;-79
2021/08/25 07:14:24;;;;;;;6.65;5.60;;;14.80;79.40;;;14.56;64.61;95398.59;5022636;28;20580;-79
2021/08/25 07:16:51;;;;;;;6.40;5.35;;;14.80;79.40;;;14.65;64.53;95407.13;5028248;28;20215;-79
2021/08/25 07:19:19;;;;;;;6.43;5.45;;;14.90;79.70;;;14.69;64.85;95405.69;5015250;28;20281;-80
2021/08/25 07:21:46;;;;;;;7.68;5.93;;;14.90;79.70;;;14.76;65.05;95399.59;5029280;28;20219;-79
2021/08/25 07:24:13;;;;;;;5.80;5.15;;;14.90;79.80;;;14.84;64.57;95407.31;5017067;28;20207;-81
2021/08/25 07:26:41;;;;;;;6.28;5.18;;;14.90;79.90;;;14.89;64.76;95392.47;5016044;28;20295;-80
2021/08/25 07:29:08;;;;;;;6.28;5.53;;;15.00;80.00;;;14.98;64.62;95394.91;5020248;28;20648;-80
2021/08/25 07:31:35;;;;;;;7.45;6.10;;;15.10;80.10;;;15.07;64.71;95406.84;5014874;28;20298;-80
2021/08/25 07:34:04;;;;;;;6.97;6.00;;;15.10;80.00;;;15.12;64.68;95403.59;5015538;28;20212;-80
2021/08/25 07:36:31;;;;;;;6.47;5.40;;;15.20;80.10;;;15.22;64.56;95406.59;5018673;28;20700;-79
2021/08/25 07:38:58;;;;;;;6.80;5.05;;;15.20;80.20;;;15.31;64.93;95402.69;5017062;28;20230;-80
2021/08/25 07:41:26;;;;;;;6.32;5.10;;;15.30;80.30;;;15.43;64.59;95396.75;5020716;28;20212;-79
2021/08/25 07:43:53;;;;;;;6.35;5.28;;;15.40;80.50;;;15.53;64.87;95395.28;5038404;28;20222;-80
2021/08/25 07:46:20;;;;;;;5.85;5.22;;;15.40;80.60;;;15.62;64.42;95398.50;5008210;28;20578;-80
2021/08/25 07:48:47;;;;;;;6.35;4.68;;;15.50;80.30;;;15.71;64.29;95404.38;5019697;28;20279;-80
2021/08/25 07:51:15;;;;;;;6.03;5.28;;;15.60;80.20;;;15.80;64.65;95405.72;5029318;28;20258;-82
2021/08/25 07:53:42;;;;;;;6.10;5.32;;;15.80;80.30;;;15.87;63.94;95402.25;5031753;28;20199;-81
2021/08/25 07:56:09;;;;;;;6.20;5.13;;;15.80;80.10;;;15.95;64.00;95408.13;5048860;28;20235;-79
2021/08/25 07:58:36;;;;;;;6.15;4.57;;;15.90;80.00;;;16.04;64.06;95405.19;5019696;28;20294;-80
2021/08/25 08:01:12;;;;;;;6.57;4.88;;;15.90;80.10;;;16.13;63.97;95399.44;5042163;28;20290;-79
2021/08/25 08:03:40;;;;;;;6.22;4.68;;;16.00;79.90;;;16.21;63.97;95401.03;5028291;28;20212;-80
2021/08/25 08:06:08;;;;;;;5.78;4.40;;;16.10;79.70;;;16.28;63.58;95401.78;5032838;28;20254;-79
2021/08/25 08:08:36;;;;;;;7.03;4.80;;;16.20;79.60;;;16.34;62.90;95397.44;5016298;28;20744;-80
2021/08/25 08:11:03;;;;;;;5.90;4.47;;;16.20;79.00;;;16.41;63.17;95392.13;5040949;28;20208;-80
2021/08/25 08:13:30;;;;;;;6.10;4.80;;;16.30;79.10;;;16.49;63.48;95389.22;5020388;28;20729;-80
2021/08/25 08:15:58;;;;;;;8.45;5.40;;;16.40;79.20;;;16.57;62.76;95396.06;5032139;28;20262;-80
2021/08/25 08:18:32;;;;;;;6.90;4.95;;;16.40;79.10;;;16.64;62.74;95391.50;5016020;28;20196;-80
2021/08/25 08:20:59;;;;;;;5.97;4.38;;;16.50;79.30;;;16.74;62.69;95383.88;5022771;28;20218;-80
2021/08/25 08:23:27;;;;;;;6.32;5.13;;;16.60;79.30;;;16.84;62.71;95378.06;5032105;28;20200;-79
2021/08/25 08:25:56;;;;;;;8.65;5.30;;;16.70;79.40;;;17.00;62.14;95376.69;5000207;28;20216;-80
2021/08/25 08:28:24;;;;;;;7.10;4.68;;;16.70;79.30;;;17.23;62.40;95372.59;5029671;28;20196;-79
2021/08/25 08:30:51;;;;;;;5.82;4.25;;;16.90;78.90;;;17.49;62.29;95370.63;5015717;28;20316;-80
2021/08/25 08:33:18;;;;;;;5.60;4.18;;;17.00;79.60;;;17.87;62.46;95366.84;5016217;28;20210;-80
2021/08/25 08:35:45;;;;;;;6.88;4.15;;;17.20;79.70;;;18.22;61.83;95374.94;5015769;28;20274;-79
2021/08/25 08:38:12;;;;;;;5.55;3.95;;;17.40;79.90;;;18.56;61.02;95369.88;5013455;28;20677;-79
2021/08/25 08:40:40;;;;;;;5.05;4.10;;;17.70;79.20;;;18.92;61.04;95361.09;5024837;28;20216;-81
2021/08/25 08:43:10;;;;;;;5.50;4.00;;;18.00;79.10;;;19.23;59.96;95351.91;5014406;28;20192;-80
2021/08/25 08:45:41;;;;;;;7.07;4.95;;;18.30;78.20;;;19.51;58.18;95356.44;5050151;28;20230;-80
2021/08/25 08:48:12;;;;;;;7.22;4.90;;;18.50;77.80;;;19.71;59.01;95349.88;5033467;28;20184;-80
2021/08/25 08:50:43;;;;;;;7.18;5.20;;;18.80;78.30;;;19.87;58.97;95347.53;5049749;28;20211;-80
2021/08/25 08:53:11;;;;;;;5.70;4.43;;;19.00;77.70;;;19.91;57.54;95354.00;5034506;28;20294;-80
2021/08/25 08:55:39;;;;;;;5.85;4.40;;;19.20;76.40;;;19.83;56.83;95347.19;5013527;28;20258;-80
2021/08/25 08:58:06;;;;;;;5.53;4.18;;;19.40;75.90;;;19.72;57.40;95350.72;5033126;28;20708;-81
2021/08/25 09:00:34;;;;;;;7.05;5.20;;;19.40;75.70;;;19.55;57.49;95345.34;5032407;28;20222;-81
2021/08/25 09:03:02;;;;;;;6.60;4.20;;;19.40;75.20;;;19.45;57.75;95345.97;5040157;28;20270;-79
2021/08/25 09:05:32;;;;;;;6.40;4.63;;;19.40;75.00;;;19.34;57.47;95339.63;5033046;28;20225;-80
2021/08/25 09:08:04;;;;;;;6.25;4.55;;;19.40;74.80;;;19.39;58.03;95342.38;5029237;28;20196;-80
2021/08/25 09:10:39;;;;;;;6.00;4.55;;;19.40;75.00;;;19.50;58.16;95341.53;5029767;28;20262;-81
2021/08/25 09:13:11;;;;;;;5.95;4.60;;;19.40;75.40;;;19.69;57.75;95330.72;5029816;28;20191;-79
2021/08/25 09:15:42;;;;;;;6.05;4.35;;;19.40;74.80;;;19.83;57.70;95331.22;5015857;28;20232;-80
2021/08/25 09:18:15;;;;;;;7.18;5.43;;;19.50;75.40;;;19.83;55.96;95329.41;5030785;28;20219;-80
2021/08/25 09:20:47;;;;;;;6.88;5.03;;;19.60;74.20;;;19.71;55.71;95322.47;5031514;28;20742;-80
2021/08/25 09:23:24;;;;;;;6.85;4.60;;;19.60;73.90;;;19.56;56.41;95323.81;5015242;28;20669;-81
2021/08/25 09:26:06;;;;;;;6.10;4.50;;;19.60;73.90;;;19.41;55.99;95315.53;5031404;28;20219;-80
2021/08/25 09:28:36;;;;;;;7.22;4.95;;;19.60;73.10;;;19.32;55.70;95315.94;5010768;28;20223;-79
2021/08/25 09:31:12;;;;;;;5.70;4.45;;;19.50;73.10;;;19.23;56.19;95314.69;5038610;28;20306;-80
2021/08/25 09:33:48;;;;;;;7.00;5.00;;;19.40;72.80;;;19.14;56.11;95316.09;5034174;28;20557;-80
2021/08/25 09:36:18;;;;;;;6.63;4.82;;;19.40;72.60;;;19.15;56.06;95313.22;5034647;28;20234;-80
2021/08/25 09:38:55;;;;;;;7.80;5.20;;;19.30;73.00;;;19.19;55.96;95311.69;5018236;28;20704;-80
2021/08/25 09:41:23;;;;;;;7.35;4.55;;;19.30;72.60;;;19.27;55.05;95315.03;5034684;28;20211;-80
2021/08/25 09:43:52;;;;;;;6.57;4.40;;;19.30;72.70;;;19.31;54.27;95316.97;5049633;28;20731;-80
2021/08/25 09:46:25;;;;;;;6.50;4.70;;;19.30;72.20;;;19.40;54.65;95314.75;5014670;28;20227;-80
2021/08/25 09:48:58;;;;;;;6.50;4.13;;;19.30;72.10;;;19.57;55.91;95314.78;5021044;28;20219;-80
2021/08/25 09:51:37;;;;;;;5.85;4.35;;;19.40;72.90;;;19.81;56.53;95312.00;5014829;28;20243;-80
2021/08/25 09:54:11;;;;;;;6.00;4.05;;;19.50;73.60;;;20.05;55.71;95306.56;5031930;28;20187;-80
2021/08/25 09:56:41;;;;;;;6.38;4.20;;;19.60;73.20;;;20.30;55.86;95306.97;5037287;28;20234;-80
2021/08/25 09:59:14;;;;;;;5.72;4.25;;;19.80;73.40;;;20.55;54.98;95307.59;5022141;28;20196;-80
2021/08/25 10:01:42;;;;;;;6.47;4.35;;;20.00;73.20;;;20.68;53.06;95295.75;5034927;28;20227;-80
2021/08/25 10:04:14;;;;;;;4.93;3.75;;;20.10;72.40;;;20.81;53.88;95306.09;5026381;28;20236;-79
2021/08/25 10:06:50;;;;;;;5.45;3.78;;;20.30;72.30;;;20.93;53.94;95301.47;5055017;28;20216;-80
2021/08/25 10:09:18;;;;;;;5.45;3.78;;;20.40;72.60;;;21.05;54.08;95311.22;5040368;28;20249;-80
2021/08/25 10:11:59;;;;;;;5.18;3.70;;;20.50;72.30;;;21.15;54.62;95303.31;5034899;28;20220;-80
2021/08/25 10:14:31;;;;;;;5.10;3.60;;;20.70;72.10;;;21.25;54.54;95289.28;5033692;28;20289;-81
2021/08/25 10:16:58;;;;;;;5.88;3.90;;;20.70;72.10;;;21.24;53.88;95282.38;5018720;28;20219;-80
2021/08/25 10:19:37;;;;;;;6.07;4.72;;;20.90;71.90;;;21.16;53.38;95283.59;5050131;28;20201;-80
2021/08/25 10:22:24;;;;;;;5.45;3.88;;;21.00;71.40;;;21.01;53.78;95288.78;5045212;28;20280;-79
2021/08/25 10:25:00;;;;;;;4.90;4.10;;;21.00;71.30;;;20.88;53.90;95287.25;5041999;28;20202;-81